Atka, Alaska
Current Conditions -  °F | °C
As of 4:36 AM on Wednesday 22 Oct 2014 (Local Time) from PAAK Reporting Station
Overcast Overcast  
Wind Chill: 35°   Ceiling: 4400
Heat Index: 43°   Visibility: 10mi
Dew Point: 36°   Wind: 16mph
Humidity: 76%   Direction: 280°W
Pressure: 30.16"   Gusts: 23mph
Location:  52.19°N, 174.2°W
Report Text: PAAK 221336Z 28014G20KT 10SM SCT032 OVC044 06/02 A3016 RMK AO1
Loading
Personal Weather Stations






























Interactive Weather Map
Tropical Storm Tracking
New forecast layout! Learn more

10-Day Weather Forecast

Advertisements
Track Severe Weather on mobile